24h
KLIENDITUGI:
Saartelennuliinid: +372 58856336 (24/7)
Estairi piletikassa lennujaamas:
+372 6058887; +372 55603687

03.12.2018 õhtune Transaviabaltika lend KTB676 Tallinn - Kärdla ja KTB677 Kärdla – Tallinn väljalend jääb ära. Lennu ära jäämise põhjustab madalad pilved Kärdla lennuvälja kohal. Reisijatele võimaldatakse tasuta lennupileti ümberbroneerimine reisija soovi kohasele mõnele teisele Tallinn-Kärdla või Kärdla-Tallinn lennule. Reisijatele kes ei soovi lennupileti ümberbroneerimist teisele lennule tagastatakse piletiraha. Oma soovist tuleb teada anda e-mailile [email protected] Lisainformatsioon telefonil 58856336.

EEKA Kärdla lennuväli

FCEO32 EETN 031300 TAF EEKA 031300Z 0314/0321 15014KT 3500 BR OVC003 PROB40

TEMPO 0314/0317 2000 DZ TEMPO 0317/0319 1500 RADZ OVC002 TEMPO 0319/0321 0500 DZ FG VV002=

METAR EEKA 031350Z 13011KT 3600 BR OVC003 M00/M00 Q0998=

Kuupäev: 
03/12/2018